Terminal Aerodrome Forecast
Issued by NWS

Home | Current Version | Previous Version | Text Only | Print | Product List | Glossary On
Versions: 1 2 3 4 5 6 7 8 9 10 11 12 13 14 15 16
000
FTUS42 TJSJ 171725
TAFKPK
TAF
TKPK 171725Z 1718/1818 11011KT P6SM VCSH SCT015
      TEMPO 1718/1721 3SM SHRA BKN010
     FM172100 11012KT P6SM VCSH SCT020 BKN040
     FM180000 09012KT P6SM SCT020
      AMD NOT SKED 1802/1811=

USA.gov is the U.S. government's official web portal to all federal, state and local government web resources and services.